Dixie, Alabama
Current Conditions -  °F | °C
As of 12:56 PM on Thursday 18 Dec 2014 (Local Time) from K79J Reporting Station
Few Clouds Few Clouds  
Wind Chill: 66°   Ceiling: Unl
Heat Index: 66°   Visibility: 10mi
Dew Point: 32°   Wind: 5mph
Humidity: 28%   Direction: 250°WSW
Pressure: 30.13"   Gusts: NA
Location:  31.1836°N, 86.5372°W
Report Text: K79J 181856Z AUTO 25004KT 10SM FEW120 19/00 A3013 RMK AO2 SLP201 T01890000
Loading
Personal Weather Stations






























Interactive Weather Map New forecast layout! Learn more

10-Day Weather Forecast

Advertisements
Track Severe Weather on mobile